Time;durP1;ratioP1;P1;durP2;ratioP2;P2;SDS_P1;SDS_P2;PMS_P1;PMS_P2;Temp;Humidity;BMP_temperature;BMP_pressure;BME280_temperature;BME280_humidity;BME280_pressure;Samples;Min_cycle;Max_cycle;Signal;HPM_P1;HPM_P2
2024/02/19 00:01:47;;;;;;;33.97;3.50;;;9.00;99.90;;;;;;5039650;28;20056;-35
2024/02/19 00:04:14;;;;;;;26.33;2.88;;;9.00;99.90;;;;;;5034848;28;20033;-35
2024/02/19 00:06:40;;;;;;;16.80;2.43;;;9.00;99.90;;;;;;5050448;28;20065;-35
2024/02/19 00:09:05;;;;;;;21.95;2.63;;;9.00;99.90;;;;;;5055101;28;20699;-35
2024/02/19 00:11:31;;;;;;;28.90;3.03;;;9.00;99.90;;;;;;5044791;28;20025;-37
2024/02/19 00:13:58;;;;;;;26.50;3.72;;;9.00;99.90;;;;;;5035833;28;20052;-36
2024/02/19 00:16:24;;;;;;;22.65;2.97;;;9.00;99.90;;;;;;5035075;28;20533;-37
2024/02/19 00:18:49;;;;;;;31.33;3.47;;;9.00;99.90;;;;;;5051988;28;20104;-35
2024/02/19 00:21:18;;;;;;;26.73;3.20;;;9.00;99.90;;;;;;5039863;28;20029;-37
2024/02/19 00:23:43;;;;;;;15.27;2.80;;;9.00;99.90;;;;;;5045337;28;20036;-36
2024/02/19 00:26:09;;;;;;;30.38;3.83;;;9.00;99.90;;;;;;5053419;28;20024;-37
2024/02/19 00:28:35;;;;;;;36.60;4.10;;;8.90;99.90;;;;;;5054582;28;20394;-36
2024/02/19 00:31:00;;;;;;;24.40;3.75;;;8.90;99.90;;;;;;5053833;28;20029;-35
2024/02/19 00:33:26;;;;;;;24.85;2.53;;;8.90;99.90;;;;;;5054598;28;20446;-35
2024/02/19 00:35:51;;;;;;;33.47;3.70;;;8.90;99.90;;;;;;5054768;28;20064;-35
2024/02/19 00:38:18;;;;;;;23.50;3.75;;;8.90;99.90;;;;;;5047410;28;20078;-36
2024/02/19 00:40:45;;;;;;;38.00;2.85;;;9.00;99.90;;;;;;5050728;28;20470;-35
2024/02/19 00:43:11;;;;;;;30.50;2.87;;;9.00;99.90;;;;;;5034857;28;20532;-34
2024/02/19 00:45:37;;;;;;;23.23;2.88;;;9.00;99.90;;;;;;5034376;28;20033;-35
2024/02/19 00:48:02;;;;;;;21.15;2.35;;;9.00;99.90;;;;;;5035532;28;20017;-34
2024/02/19 00:50:28;;;;;;;14.27;2.25;;;9.00;99.90;;;;;;5033890;28;20037;-35
2024/02/19 00:52:54;;;;;;;20.83;2.35;;;9.00;99.90;;;;;;5034538;28;20025;-34
2024/02/19 00:55:21;;;;;;;19.15;2.90;;;9.10;99.90;;;;;;5035031;28;20025;-35
2024/02/19 00:57:47;;;;;;;17.05;2.22;;;9.20;99.90;;;;;;5034258;28;20591;-35
2024/02/19 01:00:13;;;;;;;15.27;1.55;;;9.10;99.90;;;;;;5039192;28;20053;-35
2024/02/19 01:02:40;;;;;;;13.98;2.55;;;9.20;99.90;;;;;;5053245;28;20362;-36
2024/02/19 01:05:06;;;;;;;20.60;2.53;;;9.20;99.90;;;;;;5040458;28;20032;-34
2024/02/19 01:07:32;;;;;;;18.77;3.30;;;9.10;99.90;;;;;;5038693;28;20478;-35
2024/02/19 01:09:58;;;;;;;20.75;2.42;;;9.20;99.90;;;;;;5053817;28;20031;-35
2024/02/19 01:12:24;;;;;;;15.15;1.70;;;9.20;99.90;;;;;;5045876;28;20032;-35
2024/02/19 01:14:50;;;;;;;21.45;3.10;;;9.20;99.90;;;;;;5074040;28;20052;-35
2024/02/19 01:17:15;;;;;;;17.77;2.47;;;9.20;99.90;;;;;;5059377;28;20068;-35
2024/02/19 01:19:42;;;;;;;13.13;2.08;;;9.20;99.90;;;;;;5050766;28;20371;-56
2024/02/19 01:22:08;;;;;;;19.83;3.10;;;9.20;99.90;;;;;;5034335;28;20037;-53
2024/02/19 01:24:33;;;;;;;21.45;2.47;;;9.20;99.90;;;;;;5034045;28;20029;-53
2024/02/19 01:27:02;;;;;;;27.73;2.30;;;9.20;99.90;;;;;;5033918;28;20026;-48
2024/02/19 01:29:28;;;;;;;26.17;2.53;;;9.20;99.90;;;;;;5049645;28;20496;-50
2024/02/19 01:31:53;;;;;;;19.35;3.20;;;9.30;99.90;;;;;;5040884;28;20096;-52
2024/02/19 01:34:19;;;;;;;24.55;2.63;;;9.30;99.90;;;;;;5033386;28;20052;-53
2024/02/19 01:36:46;;;;;;;16.20;2.22;;;9.20;99.90;;;;;;5033626;28;20030;-52
2024/02/19 01:39:12;;;;;;;17.80;1.50;;;9.20;99.90;;;;;;5033168;28;20078;-49
2024/02/19 01:41:38;;;;;;;22.25;3.08;;;9.30;99.90;;;;;;5033319;28;20026;-52
2024/02/19 01:44:08;;;;;;;18.58;2.30;;;9.40;99.90;;;;;;5031928;28;20052;-50
2024/02/19 01:46:39;;;;;;;22.50;2.50;;;9.40;99.90;;;;;;5037095;28;20493;-59
2024/02/19 01:49:07;;;;;;;13.65;1.90;;;9.40;99.90;;;;;;5033300;28;20100;-52
2024/02/19 01:51:34;;;;;;;23.60;1.80;;;9.40;99.90;;;;;;5041795;28;20025;-51
2024/02/19 01:54:00;;;;;;;19.90;3.25;;;9.40;99.90;;;;;;5046502;28;20104;-50
2024/02/19 01:56:27;;;;;;;19.23;1.88;;;9.40;99.90;;;;;;5031815;28;20040;-52
2024/02/19 01:58:52;;;;;;;18.20;2.35;;;9.40;99.90;;;;;;5032986;28;20018;-53
2024/02/19 02:01:18;;;;;;;8.43;2.72;;;9.40;99.90;;;;;;5026740;28;20041;-50
2024/02/19 02:03:46;;;;;;;14.85;3.15;;;9.40;99.90;;;;;;5036510;28;20033;-48
2024/02/19 02:06:11;;;;;;;15.55;3.33;;;9.40;99.90;;;;;;5045271;28;20052;-53
2024/02/19 02:08:40;;;;;;;14.65;2.05;;;9.30;99.90;;;;;;5032341;28;20092;-51
2024/02/19 02:11:09;;;;;;;13.57;1.77;;;9.30;99.90;;;;;;5033174;28;20091;-48
2024/02/19 02:13:35;;;;;;;26.83;3.55;;;9.30;99.90;;;;;;5033023;28;20057;-49
2024/02/19 02:16:05;;;;;;;14.23;1.95;;;9.30;99.90;;;;;;5033819;28;20446;-35
2024/02/19 02:18:30;;;;;;;17.98;2.63;;;9.30;99.90;;;;;;5033276;28;20021;-35
2024/02/19 02:20:59;;;;;;;16.77;2.20;;;9.30;99.90;;;;;;5052182;28;20032;-35
2024/02/19 02:23:25;;;;;;;19.52;2.88;;;9.30;99.90;;;;;;5031443;28;20494;-35
2024/02/19 02:25:54;;;;;;;17.67;3.08;;;9.20;99.90;;;;;;5031535;28;20022;-37
2024/02/19 02:28:21;;;;;;;25.40;2.38;;;9.20;99.90;;;;;;5039895;28;20397;-35
2024/02/19 02:30:47;;;;;;;15.65;2.60;;;9.20;99.90;;;;;;5033351;28;20116;-35
2024/02/19 02:33:13;;;;;;;22.60;2.75;;;9.30;99.90;;;;;;5040713;28;20076;-35
2024/02/19 02:35:38;;;;;;;19.23;2.30;;;9.30;99.90;;;;;;5032896;28;20037;-35
2024/02/19 02:38:04;;;;;;;19.33;3.60;;;9.40;99.90;;;;;;5033181;28;20017;-35
2024/02/19 02:40:30;;;;;;;25.80;2.72;;;9.40;99.90;;;;;;5032441;28;20091;-36
2024/02/19 02:42:56;;;;;;;15.50;2.72;;;9.40;99.90;;;;;;5032840;28;20014;-36
2024/02/19 02:45:22;;;;;;;19.55;2.22;;;9.40;99.90;;;;;;5045216;28;20410;-35
2024/02/19 02:47:48;;;;;;;25.20;3.60;;;9.50;99.90;;;;;;5050160;28;20060;-50
2024/02/19 02:50:13;;;;;;;26.05;2.78;;;9.40;99.90;;;;;;5045135;28;20017;-51
2024/02/19 02:52:39;;;;;;;15.32;3.38;;;9.20;99.90;;;;;;5032564;28;20021;-53
2024/02/19 02:55:05;;;;;;;20.77;3.22;;;9.20;99.90;;;;;;5032587;28;20435;-51
2024/02/19 02:57:31;;;;;;;24.60;2.67;;;9.10;99.90;;;;;;5032367;28;20113;-51
2024/02/19 02:59:56;;;;;;;29.15;3.22;;;9.10;99.90;;;;;;5032437;28;20457;-51
2024/02/19 03:02:22;;;;;;;20.85;2.88;;;9.20;99.90;;;;;;5032175;28;20022;-53
2024/02/19 03:04:47;;;;;;;19.63;2.30;;;9.20;99.90;;;;;;5031167;28;20033;-52
2024/02/19 03:07:13;;;;;;;24.98;3.42;;;9.20;99.90;;;;;;5032658;28;20026;-52
2024/02/19 03:09:39;;;;;;;15.50;2.33;;;9.20;99.90;;;;;;5032434;28;20057;-52
2024/02/19 03:12:05;;;;;;;24.88;4.55;;;9.20;99.90;;;;;;5039498;28;20025;-52
2024/02/19 03:14:31;;;;;;;12.75;1.90;;;9.20;99.90;;;;;;5036516;28;20033;-50
2024/02/19 03:16:57;;;;;;;19.42;2.47;;;9.20;99.90;;;;;;5046459;28;20512;-52
2024/02/19 03:19:22;;;;;;;22.08;2.28;;;9.20;99.90;;;;;;5032600;28;20033;-52
2024/02/19 03:21:48;;;;;;;15.18;2.70;;;9.20;99.90;;;;;;5031940;28;20030;-50
2024/02/19 03:24:14;;;;;;;7.75;2.00;;;9.30;99.90;;;;;;5032385;28;20402;-46
2024/02/19 03:26:41;;;;;;;18.80;2.83;;;9.30;99.90;;;;;;5032390;28;20401;-52
2024/02/19 03:29:12;;;;;;;16.65;2.15;;;9.40;99.90;;;;;;5032121;28;20203;-53
2024/02/19 03:31:38;;;;;;;22.33;2.88;;;9.40;99.90;;;;;;5033416;28;20385;-52
2024/02/19 03:34:04;;;;;;;13.05;2.28;;;9.50;99.90;;;;;;5032144;28;20029;-50
2024/02/19 03:36:30;;;;;;;24.85;2.70;;;9.50;99.90;;;;;;5039652;28;20060;-53
2024/02/19 03:38:55;;;;;;;19.90;3.05;;;9.40;99.90;;;;;;5032208;28;20022;-36
2024/02/19 03:41:21;;;;;;;8.82;2.42;;;9.50;99.90;;;;;;5042280;28;20025;-37
2024/02/19 03:43:47;;;;;;;13.73;1.88;;;9.50;99.90;;;;;;5054760;28;20032;-36
2024/02/19 03:46:12;;;;;;;25.98;2.00;;;9.50;99.90;;;;;;5040702;28;20041;-35
2024/02/19 03:48:38;;;;;;;25.45;2.97;;;9.50;99.90;;;;;;5049713;28;20397;-36
2024/02/19 03:51:04;;;;;;;14.77;2.13;;;9.50;99.90;;;;;;5040278;28;20025;-36
2024/02/19 03:53:31;;;;;;;6.10;1.70;;;9.50;99.90;;;;;;5035459;28;20040;-36
2024/02/19 03:55:58;;;;;;;10.63;2.20;;;9.50;99.90;;;;;;5035537;28;20490;-36
2024/02/19 03:58:24;;;;;;;11.95;1.45;;;9.50;99.90;;;;;;5033910;28;20029;-35
2024/02/19 04:00:50;;;;;;;15.77;1.77;;;9.50;99.90;;;;;;5043874;28;20397;-36
2024/02/19 04:03:16;;;;;;;19.83;2.88;;;9.50;99.90;;;;;;5055165;28;20056;-36
2024/02/19 04:05:42;;;;;;;17.55;2.20;;;9.50;99.90;;;;;;5054605;28;20040;-54
2024/02/19 04:08:08;;;;;;;8.63;1.60;;;9.50;99.90;;;;;;5041093;28;20111;-54
2024/02/19 04:10:34;;;;;;;17.45;1.88;;;9.50;99.90;;;;;;5034804;28;20497;-53
2024/02/19 04:12:59;;;;;;;15.55;2.58;;;9.50;99.90;;;;;;5035337;28;20105;-49
2024/02/19 04:15:27;;;;;;;21.23;2.65;;;9.50;99.90;;;;;;5037859;28;20029;-37
2024/02/19 04:17:52;;;;;;;21.45;3.38;;;9.60;99.90;;;;;;5053129;28;20021;-36
2024/02/19 04:20:18;;;;;;;18.15;3.25;;;9.60;99.90;;;;;;5034893;28;20122;-36
2024/02/19 04:22:44;;;;;;;17.35;2.03;;;9.60;99.90;;;;;;5034790;28;20034;-37
2024/02/19 04:25:09;;;;;;;20.10;2.17;;;9.60;99.90;;;;;;5034764;28;20032;-37
2024/02/19 04:27:35;;;;;;;13.20;2.17;;;9.60;99.90;;;;;;5034633;28;20109;-37
2024/02/19 04:30:04;;;;;;;13.63;2.42;;;9.60;99.90;;;;;;5034603;28;20057;-37
2024/02/19 04:32:29;;;;;;;10.35;1.70;;;9.60;99.90;;;;;;5035534;28;20393;-38
2024/02/19 04:34:57;;;;;;;17.40;2.80;;;9.60;99.90;;;;;;5035379;28;20109;-37
2024/02/19 04:37:22;;;;;;;11.88;1.90;;;9.60;99.90;;;;;;5034555;28;20033;-37
2024/02/19 04:39:48;;;;;;;8.07;1.58;;;9.60;99.90;;;;;;5034312;28;20025;-37
2024/02/19 04:42:14;;;;;;;18.50;2.28;;;9.60;99.90;;;;;;5035695;28;20029;-37
2024/02/19 04:44:40;;;;;;;14.30;2.33;;;9.60;99.90;;;;;;5036200;28;20457;-37
2024/02/19 04:47:05;;;;;;;16.67;1.52;;;9.60;99.90;;;;;;5052576;28;20104;-36
2024/02/19 04:49:31;;;;;;;8.80;1.50;;;9.60;99.90;;;;;;5052761;28;20385;-50
2024/02/19 04:51:57;;;;;;;6.38;1.85;;;9.60;99.90;;;;;;5035316;28;20546;-52
2024/02/19 04:54:22;;;;;;;18.20;3.00;;;9.60;99.90;;;;;;5034016;28;20074;-54
2024/02/19 04:56:48;;;;;;;15.43;2.00;;;9.60;99.90;;;;;;5034158;28;20072;-50
2024/02/19 04:59:14;;;;;;;17.10;2.10;;;9.60;99.90;;;;;;5038119;28;20056;-53
2024/02/19 05:01:39;;;;;;;17.00;2.00;;;9.70;99.90;;;;;;5045297;28;20021;-51
2024/02/19 05:04:05;;;;;;;16.33;3.65;;;9.70;99.90;;;;;;5034516;28;20072;-52
2024/02/19 05:06:31;;;;;;;14.25;2.08;;;9.60;99.90;;;;;;5033946;28;20516;-51
2024/02/19 05:08:56;;;;;;;13.15;2.03;;;9.60;99.90;;;;;;5033786;28;20021;-54
2024/02/19 05:11:22;;;;;;;5.90;1.50;;;9.60;99.90;;;;;;5033934;28;20048;-37
2024/02/19 05:13:48;;;;;;;11.80;1.88;;;9.70;99.90;;;;;;5033945;28;20108;-36
2024/02/19 05:16:13;;;;;;;13.13;2.10;;;9.60;99.90;;;;;;5034430;28;20469;-37
2024/02/19 05:18:39;;;;;;;10.45;2.08;;;9.60;99.90;;;;;;5033613;28;20478;-37
2024/02/19 05:21:06;;;;;;;11.07;2.15;;;9.70;99.90;;;;;;5053620;28;20021;-36
2024/02/19 05:23:32;;;;;;;7.40;1.52;;;9.70;99.90;;;;;;5053705;28;20029;-37
2024/02/19 05:25:58;;;;;;;13.82;2.45;;;9.70;99.90;;;;;;5052678;28;20595;-41
2024/02/19 05:28:24;;;;;;;14.20;2.30;;;9.80;99.90;;;;;;5033623;28;20037;-36
2024/02/19 05:30:49;;;;;;;10.73;2.25;;;9.80;99.90;;;;;;5033484;28;20064;-36
2024/02/19 05:33:19;;;;;;;8.93;1.98;;;9.80;99.90;;;;;;5034278;28;20121;-36
2024/02/19 05:35:45;;;;;;;13.10;2.45;;;9.80;99.90;;;;;;5033484;28;20072;-36
2024/02/19 05:38:14;;;;;;;9.38;1.90;;;9.80;99.90;;;;;;5032049;28;20021;-54
2024/02/19 05:40:40;;;;;;;9.95;1.95;;;9.80;99.90;;;;;;5033559;28;20473;-54
2024/02/19 05:43:06;;;;;;;19.25;3.20;;;9.80;99.90;;;;;;5033365;28;20059;-51
2024/02/19 05:45:32;;;;;;;15.13;2.47;;;9.80;99.90;;;;;;5044689;28;20025;-38
2024/02/19 05:47:58;;;;;;;7.90;2.03;;;9.90;99.90;;;;;;5039122;28;20021;-36
2024/02/19 05:50:23;;;;;;;8.02;2.13;;;9.90;99.90;;;;;;5048074;28;20405;-38
2024/02/19 05:52:49;;;;;;;14.55;2.63;;;9.90;99.90;;;;;;5053169;28;20461;-37
2024/02/19 05:55:15;;;;;;;15.50;1.98;;;9.80;99.90;;;;;;5040614;28;20018;-36
2024/02/19 05:57:40;;;;;;;10.30;1.90;;;9.70;99.90;;;;;;5033033;28;20101;-44
2024/02/19 06:00:13;;;;;;;17.08;2.10;;;9.80;99.90;;;;;;5034706;28;20018;-55
2024/02/19 06:02:40;;;;;;;10.18;2.22;;;9.80;99.90;;;;;;5033230;28;20378;-54
2024/02/19 06:05:07;;;;;;;14.10;2.97;;;9.80;99.90;;;;;;5043043;28;20036;-55
2024/02/19 06:07:32;;;;;;;9.10;1.92;;;9.80;99.90;;;;;;5053000;28;20111;-51
2024/02/19 06:09:58;;;;;;;13.77;3.03;;;9.80;99.90;;;;;;5045616;28;20508;-54
2024/02/19 06:12:24;;;;;;;15.23;2.13;;;9.80;99.90;;;;;;5032928;28;20021;-53
2024/02/19 06:14:50;;;;;;;12.45;2.85;;;9.80;99.90;;;;;;5039734;28;20090;-51
2024/02/19 06:17:16;;;;;;;14.23;3.42;;;9.90;99.90;;;;;;5045829;28;20029;-54
2024/02/19 06:19:41;;;;;;;3.92;2.20;;;9.90;99.90;;;;;;5032799;28;20045;-55
2024/02/19 06:22:07;;;;;;;9.00;2.10;;;10.00;99.90;;;;;;5032727;28;20094;-53
2024/02/19 06:24:33;;;;;;;9.93;1.85;;;10.00;99.90;;;;;;5037570;28;20025;-54
2024/02/19 06:26:58;;;;;;;9.43;2.33;;;10.00;99.90;;;;;;5052734;28;20067;-52
2024/02/19 06:29:25;;;;;;;8.02;2.15;;;10.00;99.90;;;;;;5047559;28;20478;-51
2024/02/19 06:31:52;;;;;;;4.93;1.67;;;10.10;99.90;;;;;;5032594;28;20022;-57
2024/02/19 06:34:17;;;;;;;6.60;2.55;;;10.00;99.90;;;;;;5034517;28;20029;-54
2024/02/19 06:36:44;;;;;;;10.55;2.00;;;10.00;99.90;;;;;;5032633;28;20106;-57
2024/02/19 06:39:09;;;;;;;9.00;1.88;;;10.00;99.90;;;;;;5032608;28;20501;-54
2024/02/19 06:41:35;;;;;;;8.93;2.25;;;10.00;99.90;;;;;;5043661;28;20025;-50
2024/02/19 06:44:01;;;;;;;6.20;1.73;;;10.00;99.90;;;;;;5050290;28;20082;-50
2024/02/19 06:46:26;;;;;;;4.38;2.00;;;10.10;99.90;;;;;;5044640;28;20111;-37
2024/02/19 06:48:52;;;;;;;9.00;2.05;;;10.10;99.90;;;;;;5041656;28;20178;-37
2024/02/19 06:51:18;;;;;;;19.08;2.03;;;10.10;99.90;;;;;;5045575;28;20029;-53
2024/02/19 06:53:43;;;;;;;7.93;2.47;;;10.10;99.90;;;;;;5052351;28;20029;-54
2024/02/19 06:56:09;;;;;;;8.90;2.17;;;10.10;99.90;;;;;;5032619;28;20228;-54
2024/02/19 06:58:35;;;;;;;8.13;2.60;;;10.20;99.90;;;;;;5038828;28;20427;-54
2024/02/19 07:01:04;;;;;;;10.68;2.20;;;10.20;99.90;;;;;;5051054;28;20104;-55
2024/02/19 07:03:29;;;;;;;10.52;2.67;;;10.20;99.90;;;;;;5032734;28;20466;-37
2024/02/19 07:05:55;;;;;;;8.73;1.90;;;10.20;99.90;;;;;;5032479;28;20087;-54
2024/02/19 07:08:21;;;;;;;12.52;2.05;;;10.20;99.90;;;;;;5032642;28;20021;-53
2024/02/19 07:10:46;;;;;;;10.82;2.05;;;10.20;99.90;;;;;;5032633;28;20060;-38
2024/02/19 07:13:13;;;;;;;11.57;2.08;;;10.20;99.90;;;;;;5032332;28;20075;-35
2024/02/19 07:15:39;;;;;;;5.38;1.77;;;10.20;99.90;;;;;;5033177;28;20545;-39
2024/02/19 07:18:05;;;;;;;12.40;2.58;;;10.20;99.90;;;;;;5037089;28;20049;-38
2024/02/19 07:20:30;;;;;;;16.77;2.90;;;10.30;99.90;;;;;;5036060;28;20075;-37
2024/02/19 07:22:56;;;;;;;15.25;3.17;;;10.20;99.90;;;;;;5035826;28;20045;-36
2024/02/19 07:25:21;;;;;;;10.90;2.58;;;10.20;99.90;;;;;;5036441;28;20474;-37
2024/02/19 07:27:47;;;;;;;7.90;1.95;;;10.20;99.90;;;;;;5034631;28;20552;-37
2024/02/19 07:30:13;;;;;;;11.23;3.25;;;10.30;99.90;;;;;;5035668;28;20036;-37
2024/02/19 07:32:39;;;;;;;12.05;2.33;;;10.30;99.90;;;;;;5042849;28;20029;-37
2024/02/19 07:35:05;;;;;;;12.30;2.72;;;10.30;99.90;;;;;;5046763;28;20382;-39
2024/02/19 07:37:30;;;;;;;12.75;2.40;;;10.40;99.90;;;;;;5034210;28;20025;-36
2024/02/19 07:39:56;;;;;;;8.38;2.05;;;10.40;99.90;;;;;;5035649;28;20031;-36
2024/02/19 07:42:21;;;;;;;14.45;3.22;;;10.50;99.90;;;;;;5046830;28;20385;-40
2024/02/19 07:44:47;;;;;;;4.68;2.17;;;10.50;99.90;;;;;;5047105;28;20108;-37
2024/02/19 07:47:12;;;;;;;6.38;2.17;;;10.50;99.90;;;;;;5055458;28;20074;-38
2024/02/19 07:49:38;;;;;;;15.45;2.60;;;10.50;99.90;;;;;;5055320;28;20025;-38
2024/02/19 07:52:04;;;;;;;14.98;2.88;;;10.50;99.90;;;;;;5044301;28;20528;-38
2024/02/19 07:54:30;;;;;;;11.80;2.53;;;10.60;99.90;;;;;;5035299;28;20109;-36
2024/02/19 07:56:56;;;;;;;13.00;2.45;;;10.70;99.90;;;;;;5062003;28;20032;-40
2024/02/19 07:59:22;;;;;;;9.38;3.42;;;10.80;99.90;;;;;;5058942;28;20029;-37
2024/02/19 08:01:48;;;;;;;15.05;3.47;;;10.90;99.90;;;;;;5035358;28;20378;-37
2024/02/19 08:04:13;;;;;;;12.88;3.20;;;11.00;99.90;;;;;;5046772;28;20032;-38
2024/02/19 08:06:39;;;;;;;15.48;3.67;;;11.00;99.90;;;;;;5041819;28;20409;-37
2024/02/19 08:09:05;;;;;;;16.00;3.53;;;11.10;99.90;;;;;;5035109;28;20072;-39
2024/02/19 08:11:32;;;;;;;11.50;3.25;;;11.20;99.90;;;;;;5035432;28;20091;-38
2024/02/19 08:13:57;;;;;;;14.95;3.28;;;11.20;99.90;;;;;;5034759;28;20143;-40
2024/02/19 08:16:23;;;;;;;18.50;3.10;;;11.20;99.90;;;;;;5035196;28;20116;-37
2024/02/19 08:18:52;;;;;;;10.40;2.95;;;11.20;99.90;;;;;;5034878;28;20032;-44
2024/02/19 08:21:18;;;;;;;9.20;3.63;;;11.20;99.90;;;;;;5040084;28;20511;-38
2024/02/19 08:23:43;;;;;;;14.00;3.25;;;11.10;99.90;;;;;;5035189;28;20100;-38
2024/02/19 08:26:10;;;;;;;14.40;3.28;;;11.10;99.90;;;;;;5034830;28;20021;-38
2024/02/19 08:28:35;;;;;;;12.05;3.35;;;11.00;99.90;;;;;;5034900;28;20580;-39
2024/02/19 08:31:01;;;;;;;10.63;3.28;;;10.90;99.90;;;;;;5034552;28;20100;-37
2024/02/19 08:33:27;;;;;;;13.30;3.25;;;10.90;99.90;;;;;;5034769;28;20033;-36
2024/02/19 08:35:52;;;;;;;8.07;3.00;;;10.80;99.90;;;;;;5045518;28;20033;-37
2024/02/19 08:38:18;;;;;;;15.27;3.60;;;10.80;99.90;;;;;;5054715;28;20017;-36
2024/02/19 08:40:44;;;;;;;14.45;3.33;;;10.80;99.90;;;;;;5050630;28;20504;-41
2024/02/19 08:43:11;;;;;;;14.57;3.45;;;10.90;99.90;;;;;;5053525;28;20025;-40
2024/02/19 08:45:38;;;;;;;9.18;2.95;;;10.90;99.90;;;;;;5054223;28;20104;-37
2024/02/19 08:48:04;;;;;;;14.23;3.60;;;10.90;99.90;;;;;;5047834;28;20071;-38
2024/02/19 08:50:30;;;;;;;10.73;3.20;;;11.00;99.90;;;;;;5037223;28;20026;-38
2024/02/19 08:52:56;;;;;;;13.05;3.30;;;11.10;99.90;;;;;;5054227;28;20033;-38
2024/02/19 08:55:21;;;;;;;14.57;3.97;;;11.10;99.90;;;;;;5054232;28;20021;-37
2024/02/19 08:57:47;;;;;;;5.85;2.65;;;11.10;99.90;;;;;;5049598;28;20521;-38
2024/02/19 09:00:13;;;;;;;14.45;3.70;;;11.20;99.90;;;;;;5033970;28;20018;-37
2024/02/19 09:02:42;;;;;;;26.95;3.60;;;11.20;99.90;;;;;;5033968;28;20029;-43
2024/02/19 09:05:09;;;;;;;16.55;3.08;;;11.20;99.90;;;;;;5033989;28;20028;-38
2024/02/19 09:07:35;;;;;;;15.75;3.38;;;11.20;99.90;;;;;;5042256;28;20025;-39
2024/02/19 09:10:01;;;;;;;32.85;3.72;;;11.10;99.90;;;;;;5053756;28;20032;-37
2024/02/19 09:12:27;;;;;;;28.88;3.75;;;11.10;99.90;;;;;;5036480;28;20033;-40
2024/02/19 09:14:55;;;;;;;18.83;2.95;;;11.10;99.90;;;;;;5032636;28;20134;-39
2024/02/19 09:17:25;;;;;;;10.75;2.78;;;11.20;99.90;;;;;;5040903;28;20107;-39
2024/02/19 09:19:50;;;;;;;9.10;3.17;;;11.20;99.90;;;;;;5053745;28;20511;-37
2024/02/19 09:22:16;;;;;;;13.55;2.42;;;11.20;99.90;;;;;;5040305;28;20080;-38
2024/02/19 09:24:46;;;;;;;10.23;3.60;;;11.30;99.90;;;;;;5040559;28;20370;-38
2024/02/19 09:27:14;;;;;;;12.40;2.75;;;11.40;99.90;;;;;;5053233;28;20516;-37
2024/02/19 09:29:39;;;;;;;16.00;3.80;;;11.30;99.90;;;;;;5040746;28;20080;-38
2024/02/19 09:32:06;;;;;;;9.70;2.53;;;11.40;99.90;;;;;;5038286;28;20029;-41
2024/02/19 09:34:32;;;;;;;9.73;2.00;;;11.40;99.90;;;;;;5033525;28;20440;-39
2024/02/19 09:36:59;;;;;;;9.07;2.38;;;11.40;99.90;;;;;;5032472;28;20033;-37
2024/02/19 09:39:25;;;;;;;16.77;3.53;;;11.40;99.90;;;;;;5032890;28;20030;-39
2024/02/19 09:41:51;;;;;;;14.48;2.97;;;11.40;99.90;;;;;;5034134;28;20014;-37
2024/02/19 09:44:16;;;;;;;13.25;2.25;;;11.50;99.90;;;;;;5033159;28;20108;-38
2024/02/19 09:46:45;;;;;;;15.68;2.63;;;11.50;99.90;;;;;;5037120;28;20025;-38
2024/02/19 09:49:12;;;;;;;7.75;3.53;;;11.40;99.90;;;;;;5052791;28;20059;-42
2024/02/19 09:51:42;;;;;;;7.07;2.00;;;11.40;99.90;;;;;;5044932;28;20022;-41
2024/02/19 09:54:10;;;;;;;9.90;2.83;;;11.40;99.90;;;;;;5033090;28;20152;-37
2024/02/19 09:56:35;;;;;;;2.75;1.83;;;11.40;99.90;;;;;;5033055;28;20505;-38
2024/02/19 09:59:03;;;;;;;4.72;1.77;;;11.40;99.90;;;;;;5044341;28;20021;-38
2024/02/19 10:01:29;;;;;;;;;;;11.50;99.90;;;;;;5053307;28;20066;-38
2024/02/19 10:03:56;;;;;;;9.50;2.08;;;11.50;99.90;;;;;;5042379;28;19909;-38
2024/02/19 10:06:32;;;;;;;12.60;1.80;;;11.40;99.90;;;;;;5052954;28;20496;-43
2024/02/19 10:09:00;;;;;;;7.72;2.38;;;11.40;99.90;;;;;;5047819;28;20526;-40
2024/02/19 10:11:26;;;;;;;7.75;2.83;;;11.40;99.90;;;;;;5033223;28;20478;-37
2024/02/19 10:13:52;;;;;;;11.25;2.53;;;11.40;99.90;;;;;;5041580;28;20111;-38
2024/02/19 10:16:17;;;;;;;6.03;1.65;;;11.40;99.90;;;;;;5052726;28;20036;-38
2024/02/19 10:18:44;;;;;;;4.57;1.88;;;11.50;99.90;;;;;;5048645;28;20079;-40
2024/02/19 10:21:10;;;;;;;6.47;1.92;;;11.50;99.90;;;;;;5032595;28;21343;-40
2024/02/19 10:23:36;;;;;;;12.98;2.15;;;11.60;99.90;;;;;;5033026;28;20021;-40
2024/02/19 10:26:03;;;;;;;12.45;1.67;;;11.70;99.90;;;;;;5032595;28;20112;-39
2024/02/19 10:28:31;;;;;;;9.20;2.00;;;11.70;99.90;;;;;;5037761;28;20025;-41
2024/02/19 10:30:57;;;;;;;11.93;3.03;;;11.80;99.90;;;;;;5051291;28;20065;-38
2024/02/19 10:33:22;;;;;;;10.80;2.47;;;11.80;99.90;;;;;;5050908;28;20513;-38
2024/02/19 10:35:49;;;;;;;9.55;1.58;;;11.80;99.90;;;;;;5052507;28;20067;-41
2024/02/19 10:38:16;;;;;;;7.07;2.08;;;11.80;99.90;;;;;;5052756;28;20017;-40
2024/02/19 10:40:42;;;;;;;10.57;2.55;;;11.90;99.90;;;;;;5048955;28;20382;-55
2024/02/19 10:43:09;;;;;;;6.05;2.40;;;12.00;99.90;;;;;;5036297;28;20021;-53
2024/02/19 10:45:35;;;;;;;10.30;2.83;;;12.00;99.90;;;;;;5052454;28;20489;-56
2024/02/19 10:48:02;;;;;;;12.50;2.15;;;12.20;99.90;;;;;;5052531;28;20025;-52
2024/02/19 10:50:32;;;;;;;9.15;2.38;;;12.20;99.90;;;;;;5052928;28;20053;-54
2024/02/19 10:52:58;;;;;;;11.80;1.98;;;12.20;99.90;;;;;;5052714;28;20112;-54
2024/02/19 10:55:27;;;;;;;6.97;2.80;;;12.30;99.90;;;;;;5036610;28;20501;-55
2024/02/19 10:57:54;;;;;;;11.73;2.65;;;12.30;99.90;;;;;;5036283;28;20034;-54
2024/02/19 11:00:25;;;;;;;7.78;1.85;;;12.40;99.90;;;;;;5036482;28;20026;-52
2024/02/19 11:03:13;;;;;;;8.20;1.75;;;12.40;99.90;;;;;;5036521;28;20417;-51
2024/02/19 11:05:43;;;;;;;8.07;2.28;;;12.40;99.90;;;;;;5036424;28;20030;-55
2024/02/19 11:08:19;;;;;;;14.73;2.33;;;12.50;99.90;;;;;;5036237;28;20504;-55
2024/02/19 11:10:49;;;;;;;11.20;2.50;;;12.50;99.90;;;;;;5049687;28;20033;-55
2024/02/19 11:13:26;;;;;;;15.32;2.13;;;12.50;99.90;;;;;;5054757;28;20378;-55
2024/02/19 11:15:53;;;;;;;4.70;2.13;;;12.50;99.90;;;;;;5038501;28;20041;-55
2024/02/19 11:18:20;;;;;;;9.35;2.92;;;12.50;99.90;;;;;;5036402;28;20025;-52
2024/02/19 11:20:47;;;;;;;7.90;2.42;;;12.50;99.90;;;;;;5036112;28;20041;-53
2024/02/19 11:23:16;;;;;;;7.93;1.83;;;12.50;99.90;;;;;;5035820;28;20497;-53
2024/02/19 11:25:48;;;;;;;17.70;3.58;;;12.40;99.90;;;;;;5035974;28;20017;-54
2024/02/19 11:28:14;;;;;;;16.92;3.22;;;12.40;99.90;;;;;;5040994;28;20477;-53
2024/02/19 11:30:40;;;;;;;16.08;2.90;;;12.40;99.90;;;;;;5054526;28;20032;-53
2024/02/19 11:33:06;;;;;;;9.90;2.35;;;12.30;99.90;;;;;;5056080;28;20029;-53
2024/02/19 11:35:35;;;;;;;10.38;2.80;;;12.10;99.90;;;;;;5055061;28;20053;-52
2024/02/19 11:38:02;;;;;;;13.98;2.38;;;12.10;99.90;;;;;;5055619;28;20048;-53
2024/02/19 11:40:31;;;;;;;11.07;3.08;;;12.10;99.90;;;;;;5053659;28;20029;-56
2024/02/19 11:43:01;;;;;;;8.25;2.45;;;12.10;99.90;;;;;;5036625;28;20056;-53
2024/02/19 11:45:30;;;;;;;7.53;2.53;;;12.10;99.90;;;;;;5049507;28;20167;-51
2024/02/19 11:47:59;;;;;;;9.32;2.53;;;12.10;99.90;;;;;;5055777;28;20036;-54
2024/02/19 11:50:27;;;;;;;14.77;2.67;;;12.00;99.90;;;;;;5052494;28;20402;-54
2024/02/19 11:52:55;;;;;;;4.85;1.90;;;12.00;99.90;;;;;;5053031;28;20501;-52
2024/02/19 11:55:24;;;;;;;5.93;2.58;;;12.10;99.90;;;;;;5034198;28;20025;-53
2024/02/19 11:57:51;;;;;;;10.93;2.47;;;12.10;99.90;;;;;;5037112;28;20029;-51
2024/02/19 12:00:17;;;;;;;9.68;1.95;;;12.10;99.90;;;;;;5045838;28;20482;-53
2024/02/19 12:02:45;;;;;;;13.85;2.35;;;12.10;99.90;;;;;;5034435;28;20027;-53
2024/02/19 12:05:11;;;;;;;8.23;2.40;;;12.10;99.90;;;;;;5044497;28;20022;-53
2024/02/19 12:07:38;;;;;;;10.93;2.53;;;12.20;99.90;;;;;;5042653;28;20018;-52
2024/02/19 12:10:07;;;;;;;7.93;2.42;;;12.30;99.90;;;;;;5038553;28;20025;-53
2024/02/19 12:12:33;;;;;;;14.20;2.22;;;12.30;99.90;;;;;;5046991;28;20035;-53
2024/02/19 12:15:03;;;;;;;17.23;3.58;;;12.30;99.90;;;;;;5035083;28;20033;-54
2024/02/19 12:17:29;;;;;;;8.52;2.28;;;12.40;99.90;;;;;;5035169;28;20053;-53
2024/02/19 12:19:54;;;;;;;6.40;3.00;;;12.50;99.90;;;;;;5035306;28;20068;-53
2024/02/19 12:22:22;;;;;;;15.95;3.33;;;12.50;99.90;;;;;;5034775;28;20069;-57
2024/02/19 12:24:51;;;;;;;11.40;3.00;;;12.60;99.90;;;;;;5034973;28;20037;-56
2024/02/19 12:27:16;;;;;;;9.95;2.80;;;12.50;99.90;;;;;;5035907;28;20427;-53
2024/02/19 12:29:42;;;;;;;12.15;3.25;;;12.40;99.90;;;;;;5034822;28;20069;-52
2024/02/19 12:32:08;;;;;;;12.88;2.95;;;12.40;99.90;;;;;;5034781;28;20030;-52
2024/02/19 12:34:34;;;;;;;11.60;3.70;;;12.40;99.90;;;;;;5035003;28;20415;-56
2024/02/19 12:36:59;;;;;;;8.43;3.00;;;12.40;99.90;;;;;;5034529;28;20029;-55
2024/02/19 12:39:26;;;;;;;15.93;3.50;;;12.40;99.90;;;;;;5034644;28;20436;-56
2024/02/19 12:41:52;;;;;;;13.52;4.22;;;12.30;99.90;;;;;;5034409;28;20017;-55